Time;durP1;ratioP1;P1;durP2;ratioP2;P2;SDS_P1;SDS_P2;PMS_P1;PMS_P2;Temp;Humidity;BMP_temperature;BMP_pressure;BME280_temperature;BME280_humidity;BME280_pressure;Samples;Min_cycle;Max_cycle;Signal;HPM_P1;HPM_P2
2023/09/17 00:02:17;;;;;;;4.67;4.40;;;24.40;48.90;;;;;;5029069;28;20753;-63
2023/09/17 00:04:43;;;;;;;5.20;4.90;;;24.30;48.90;;;;;;5030440;28;20947;-62
2023/09/17 00:07:09;;;;;;;4.67;4.37;;;24.30;48.80;;;;;;5026751;28;20183;-64
2023/09/17 00:09:35;;;;;;;4.83;4.53;;;24.40;48.90;;;;;;5030242;28;20660;-69
2023/09/17 00:12:00;;;;;;;4.97;4.67;;;24.30;48.90;;;;;;5029519;28;20447;-64
2023/09/17 00:14:26;;;;;;;5.27;4.97;;;24.40;49.10;;;;;;5027867;28;20191;-63
2023/09/17 00:16:52;;;;;;;4.87;4.57;;;24.30;49.00;;;;;;5021842;28;20187;-67
2023/09/17 00:19:19;;;;;;;4.87;4.67;;;24.40;49.10;;;;;;5029330;28;20215;-68
2023/09/17 00:21:44;;;;;;;5.70;5.40;;;24.30;49.00;;;;;;5032719;28;20211;-67
2023/09/17 00:24:11;;;;;;;5.23;4.90;;;24.30;49.00;;;;;;5028290;28;20921;-68
2023/09/17 00:26:37;;;;;;;5.20;4.90;;;24.30;49.00;;;;;;5025881;28;21286;-63
2023/09/17 00:29:03;;;;;;;5.27;4.90;;;24.40;49.10;;;;;;5028212;28;20950;-67
2023/09/17 00:31:29;;;;;;;5.50;5.20;;;24.40;49.90;;;;;;5028149;28;20190;-69
2023/09/17 00:33:54;;;;;;;5.20;4.90;;;24.40;49.10;;;;;;5027749;28;20217;-63
2023/09/17 00:36:20;;;;;;;5.97;5.57;;;24.40;49.10;;;;;;5025081;28;20248;-65
2023/09/17 00:38:45;;;;;;;6.47;5.97;;;24.30;49.10;;;;;;5029023;28;20229;-63
2023/09/17 00:41:12;;;;;;;5.60;5.20;;;24.30;49.00;;;;;;5028500;28;20187;-63
2023/09/17 00:43:37;;;;;;;5.67;5.37;;;24.30;49.10;;;;;;5029313;28;20520;-69
2023/09/17 00:46:04;;;;;;;6.13;5.83;;;24.30;49.10;;;;;;5028955;28;20439;-63
2023/09/17 00:48:31;;;;;;;5.80;5.50;;;24.30;49.10;;;;;;5027932;28;20194;-63
2023/09/17 00:50:57;;;;;;;5.50;5.20;;;24.30;49.10;;;;;;5027166;28;20453;-64
2023/09/17 00:53:24;;;;;;;6.03;5.73;;;24.30;49.10;;;;;;5027700;28;20923;-66
2023/09/17 00:55:49;;;;;;;5.57;5.17;;;24.30;49.20;;;;;;5027532;28;20201;-62
2023/09/17 00:58:15;;;;;;;5.63;5.33;;;24.30;49.20;;;;;;5025179;28;20486;-64
2023/09/17 01:00:42;;;;;;;5.30;5.00;;;24.40;49.30;;;;;;5025794;28;20174;-61
2023/09/17 01:03:09;;;;;;;5.10;4.90;;;24.30;49.20;;;;;;5027414;28;20190;-69
2023/09/17 01:05:40;;;;;;;5.30;5.00;;;24.30;49.20;;;;;;5026202;28;20558;-67
2023/09/17 01:08:06;;;;;;;5.40;5.10;;;24.30;49.20;;;;;;5028490;28;20454;-65
2023/09/17 01:10:39;;;;;;;5.80;5.50;;;24.30;49.20;;;;;;5025952;28;20929;-63
2023/09/17 01:13:05;;;;;;;5.43;5.10;;;24.30;49.20;;;;;;5029415;28;20431;-68
2023/09/17 01:15:33;;;;;;;5.53;5.23;;;24.30;49.30;;;;;;5025989;28;20469;-68
2023/09/17 01:18:00;;;;;;;5.20;5.00;;;24.30;49.30;;;;;;5025417;28;21250;-67
2023/09/17 01:20:30;;;;;;;5.30;5.00;;;24.30;49.30;;;;;;5027442;28;20429;-66
2023/09/17 01:23:18;;;;;;;6.17;5.77;;;24.30;49.20;;;;;;5026998;28;20455;-64
2023/09/17 01:26:01;;;;;;;5.50;5.20;;;24.30;49.30;;;;;;5026834;28;21092;-67
2023/09/17 01:28:28;;;;;;;5.60;5.20;;;24.30;49.30;;;;;;5027832;28;20446;-66
2023/09/17 01:30:54;;;;;;;6.23;5.77;;;24.30;49.40;;;;;;5032991;28;20556;-62
2023/09/17 01:33:20;;;;;;;5.57;5.27;;;24.30;49.30;;;;;;5038842;28;20450;-64
2023/09/17 01:36:08;;;;;;;5.20;4.90;;;24.30;49.40;;;;;;5032474;28;20438;-62
2023/09/17 01:38:38;;;;;;;6.10;5.80;;;24.30;49.40;;;;;;5033536;28;20879;-64
2023/09/17 01:41:05;;;;;;;5.97;5.57;;;24.30;49.40;;;;;;5028176;28;20994;-65
2023/09/17 01:43:32;;;;;;;5.77;5.47;;;24.30;49.50;;;;;;5035119;28;20435;-62
2023/09/17 01:45:59;;;;;;;6.30;6.00;;;24.30;49.50;;;;;;5029908;28;20434;-62
2023/09/17 01:48:25;;;;;;;5.67;5.37;;;24.30;49.50;;;;;;5029907;28;20434;-68
2023/09/17 01:50:52;;;;;;;5.50;5.10;;;24.30;49.50;;;;;;5030437;28;20461;-63
2023/09/17 01:53:18;;;;;;;5.43;5.13;;;24.30;49.50;;;;;;5033540;28;20435;-62
2023/09/17 01:55:43;;;;;;;5.10;4.80;;;24.30;49.50;;;;;;5027998;28;20508;-66
2023/09/17 01:58:12;;;;;;;6.47;6.07;;;24.30;49.50;;;;;;5031680;28;20194;-62
2023/09/17 02:00:38;;;;;;;5.87;5.57;;;24.30;49.50;;;;;;5032398;28;20240;-66
2023/09/17 02:03:04;;;;;;;5.97;5.37;;;24.30;49.50;;;;;;5030402;28;20430;-62
2023/09/17 02:05:29;;;;;;;6.50;6.10;;;24.30;49.60;;;;;;5031352;28;20502;-62
2023/09/17 02:07:55;;;;;;;5.83;5.50;;;24.30;49.60;;;;;;5033567;28;20510;-68
2023/09/17 02:10:21;;;;;;;5.93;5.57;;;24.30;49.60;;;;;;5029064;28;20622;-63
2023/09/17 02:12:46;;;;;;;6.07;5.77;;;24.30;49.60;;;;;;5028967;28;20198;-66
2023/09/17 02:15:12;;;;;;;6.20;5.77;;;24.30;49.60;;;;;;5030694;28;20221;-63
2023/09/17 02:17:38;;;;;;;5.37;5.07;;;24.30;49.60;;;;;;5029151;28;20193;-64
2023/09/17 02:20:08;;;;;;;6.30;5.90;;;24.30;49.70;;;;;;5027767;28;20213;-65
2023/09/17 02:22:34;;;;;;;5.57;5.23;;;24.30;49.70;;;;;;5031407;28;20186;-63
2023/09/17 02:24:59;;;;;;;5.43;5.13;;;24.30;49.70;;;;;;5023870;28;20431;-65
2023/09/17 02:27:25;;;;;;;5.60;5.20;;;24.30;49.70;;;;;;5029138;28;20202;-67
2023/09/17 02:29:51;;;;;;;5.03;4.83;;;24.30;49.70;;;;;;5025996;28;20273;-67
2023/09/17 02:32:16;;;;;;;5.73;5.33;;;24.30;49.70;;;;;;5031131;28;20194;-65
2023/09/17 02:34:42;;;;;;;5.70;5.40;;;24.30;49.70;;;;;;5029771;28;20933;-63
2023/09/17 02:37:07;;;;;;;6.00;5.70;;;24.30;49.70;;;;;;5030049;28;20191;-62
2023/09/17 02:39:35;;;;;;;5.60;5.20;;;24.30;49.70;;;;;;5030288;28;20218;-69
2023/09/17 02:42:01;;;;;;;5.60;5.30;;;24.30;49.70;;;;;;5023569;28;20189;-67
2023/09/17 02:44:26;;;;;;;6.00;5.70;;;24.30;49.80;;;;;;5027564;28;20432;-65
2023/09/17 02:46:52;;;;;;;6.00;5.60;;;24.30;49.80;;;;;;5029961;28;20194;-62
2023/09/17 02:49:21;;;;;;;5.57;5.27;;;24.30;49.80;;;;;;5030138;28;20186;-66
2023/09/17 02:51:47;;;;;;;5.63;5.33;;;24.30;49.70;;;;;;5026187;28;22376;-67
2023/09/17 02:54:12;;;;;;;5.70;5.40;;;24.30;49.80;;;;;;5029399;28;21010;-63
2023/09/17 02:56:38;;;;;;;5.50;5.17;;;24.30;49.80;;;;;;5027183;28;20191;-66
2023/09/17 02:59:03;;;;;;;5.97;5.67;;;24.30;49.80;;;;;;5028117;28;20215;-69
2023/09/17 03:01:29;;;;;;;6.07;5.67;;;24.30;49.90;;;;;;5025456;28;20175;-62
2023/09/17 03:03:54;;;;;;;6.43;5.93;;;24.30;49.80;;;;;;5032642;28;20198;-62
2023/09/17 03:06:20;;;;;;;6.03;5.63;;;24.30;49.90;;;;;;5030177;28;20204;-65
2023/09/17 03:08:46;;;;;;;5.73;5.33;;;24.30;49.90;;;;;;5028030;28;20669;-67
2023/09/17 03:11:13;;;;;;;6.57;6.17;;;24.20;49.80;;;;;;5025544;28;20183;-69
2023/09/17 03:13:40;;;;;;;5.90;5.60;;;24.30;49.90;;;;;;5026618;28;20186;-64
2023/09/17 03:16:06;;;;;;;5.23;4.93;;;24.30;49.90;;;;;;5024288;28;20927;-66
2023/09/17 03:18:32;;;;;;;5.20;5.00;;;24.30;50.00;;;;;;5026916;28;20465;-69
2023/09/17 03:20:57;;;;;;;8.20;5.97;;;24.30;49.90;;;;;;5025285;28;20194;-62
2023/09/17 03:23:23;;;;;;;5.93;5.63;;;24.30;49.90;;;;;;5028904;28;20228;-62
2023/09/17 03:25:48;;;;;;;5.97;5.67;;;24.30;49.90;;;;;;5029732;28;20313;-63
2023/09/17 03:28:14;;;;;;;6.50;6.10;;;24.30;49.90;;;;;;5025592;28;20213;-62
2023/09/17 03:30:39;;;;;;;5.43;5.13;;;24.30;50.00;;;;;;5026538;28;20186;-61
2023/09/17 03:33:05;;;;;;;5.23;5.03;;;24.30;49.90;;;;;;5030079;28;20178;-66
2023/09/17 03:35:33;;;;;;;5.83;5.53;;;24.20;49.80;;;;;;5030400;28;20187;-69
2023/09/17 03:37:58;;;;;;;5.80;5.50;;;24.20;50.00;;;;;;5026940;28;20436;-64
2023/09/17 03:40:24;;;;;;;6.77;6.37;;;24.30;49.90;;;;;;5030222;28;20471;-64
2023/09/17 03:42:50;;;;;;;6.13;5.80;;;24.20;49.80;;;;;;5029365;28;20236;-63
2023/09/17 03:45:15;;;;;;;5.77;5.47;;;24.20;49.90;;;;;;5027601;28;20190;-65
2023/09/17 03:47:42;;;;;;;6.10;5.80;;;24.20;49.90;;;;;;5031786;28;20200;-68
2023/09/17 03:50:08;;;;;;;5.87;5.57;;;24.20;49.90;;;;;;5026927;28;21004;-70
2023/09/17 03:52:36;;;;;;;6.03;5.73;;;24.30;50.00;;;;;;5028719;28;20423;-66
2023/09/17 03:55:07;;;;;;;5.73;5.43;;;24.20;49.90;;;;;;5021497;28;20198;-70
2023/09/17 03:57:34;;;;;;;5.50;5.20;;;24.20;49.90;;;;;;5028091;28;20558;-70
2023/09/17 04:00:06;;;;;;;6.37;6.07;;;24.20;50.00;;;;;;5027705;28;20961;-67
2023/09/17 04:02:32;;;;;;;5.53;5.23;;;24.30;50.00;;;;;;5027024;28;20443;-70
2023/09/17 04:04:57;;;;;;;6.37;5.97;;;24.30;50.00;;;;;;5028911;28;20975;-66
2023/09/17 04:07:23;;;;;;;5.33;5.07;;;24.30;50.10;;;;;;5031238;28;21650;-66
2023/09/17 04:09:48;;;;;;;6.10;5.80;;;24.20;50.00;;;;;;5025462;28;20209;-66
2023/09/17 04:12:14;;;;;;;5.53;5.33;;;24.20;50.00;;;;;;5029598;28;20175;-68
2023/09/17 04:14:40;;;;;;;5.57;5.37;;;24.20;50.00;;;;;;5029049;28;21368;-63
2023/09/17 04:17:06;;;;;;;6.20;5.70;;;24.20;50.00;;;;;;5023838;28;20190;-70
2023/09/17 04:19:32;;;;;;;5.73;5.43;;;24.30;50.10;;;;;;5027930;28;20214;-64
2023/09/17 04:21:58;;;;;;;6.57;6.13;;;24.30;50.10;;;;;;5029478;28;20194;-63
2023/09/17 04:24:25;;;;;;;6.23;5.93;;;24.20;50.00;;;;;;5030978;28;20451;-66
2023/09/17 04:26:52;;;;;;;5.90;5.60;;;24.30;50.10;;;;;;5028051;28;20423;-65
2023/09/17 04:29:19;;;;;;;6.47;6.00;;;24.20;50.10;;;;;;5026367;28;20431;-66
2023/09/17 04:31:46;;;;;;;5.73;5.43;;;24.20;50.00;;;;;;5026563;28;20481;-63
2023/09/17 04:34:12;;;;;;;6.20;5.90;;;24.20;50.10;;;;;;5025265;28;20522;-72
2023/09/17 04:36:38;;;;;;;6.47;6.00;;;24.20;50.10;;;;;;5027420;28;20424;-62
2023/09/17 04:39:04;;;;;;;6.00;5.70;;;24.20;50.10;;;;;;5028811;28;20545;-66
2023/09/17 04:41:29;;;;;;;5.67;5.37;;;24.30;50.20;;;;;;5025330;28;20186;-63
2023/09/17 04:43:55;;;;;;;5.90;5.60;;;24.20;50.10;;;;;;5027046;28;20220;-70
2023/09/17 04:46:21;;;;;;;6.00;5.70;;;24.20;50.10;;;;;;5026892;28;20185;-64
2023/09/17 04:48:47;;;;;;;5.23;4.93;;;24.20;50.10;;;;;;5030429;28;20186;-62
2023/09/17 04:51:16;;;;;;;5.70;5.40;;;24.20;50.10;;;;;;5024896;28;20450;-64
2023/09/17 04:53:42;;;;;;;5.70;5.40;;;24.20;50.10;;;;;;5027342;28;20195;-66
2023/09/17 04:56:08;;;;;;;5.57;5.27;;;24.30;50.10;;;;;;5027084;28;20519;-63
2023/09/17 04:58:33;;;;;;;5.40;5.20;;;24.30;50.10;;;;;;5024032;28;20468;-67
2023/09/17 05:00:59;;;;;;;6.37;5.80;;;24.30;50.20;;;;;;5027401;28;20178;-62
2023/09/17 05:03:24;;;;;;;5.47;5.27;;;24.30;50.20;;;;;;5034782;28;20217;-69
2023/09/17 05:05:50;;;;;;;7.80;5.97;;;24.30;50.10;;;;;;5032407;28;20360;-68
2023/09/17 05:08:17;;;;;;;5.60;5.30;;;24.30;50.10;;;;;;5035939;28;20193;-62
2023/09/17 05:10:43;;;;;;;5.07;4.87;;;24.30;50.10;;;;;;5033542;28;20447;-68
2023/09/17 05:13:08;;;;;;;6.60;6.20;;;24.30;50.10;;;;;;5034777;28;20794;-71
2023/09/17 05:15:34;;;;;;;6.07;5.73;;;24.30;50.10;;;;;;5027599;28;20463;-68
2023/09/17 05:18:05;;;;;;;5.80;5.50;;;24.30;50.10;;;;;;5030702;28;20190;-69
2023/09/17 05:20:30;;;;;;;5.90;5.50;;;24.30;50.10;;;;;;5028350;28;20209;-65
2023/09/17 05:22:56;;;;;;;5.77;5.37;;;24.30;50.10;;;;;;5032485;28;20434;-69
2023/09/17 05:25:21;;;;;;;5.73;5.43;;;24.30;50.10;;;;;;5025676;28;20225;-72
2023/09/17 05:27:47;;;;;;;6.00;5.70;;;24.30;50.10;;;;;;5024840;28;20191;-63
2023/09/17 05:30:13;;;;;;;6.20;5.90;;;24.30;50.10;;;;;;5029042;28;20190;-64
2023/09/17 05:32:39;;;;;;;5.80;5.50;;;24.30;50.10;;;;;;5032441;28;20224;-64
2023/09/17 05:35:05;;;;;;;6.53;5.93;;;24.30;50.10;;;;;;5033965;28;22224;-66
2023/09/17 05:37:31;;;;;;;5.97;5.67;;;24.30;50.10;;;;;;5034378;28;20179;-63
2023/09/17 05:39:57;;;;;;;6.60;6.20;;;24.30;50.10;;;;;;5035429;28;20471;-66
2023/09/17 05:42:22;;;;;;;5.80;5.50;;;24.30;50.10;;;;;;5036155;28;20190;-61
2023/09/17 05:44:48;;;;;;;5.77;5.47;;;24.30;50.10;;;;;;5038348;28;20918;-66
2023/09/17 05:47:13;;;;;;;319.43;88.13;;;24.30;50.20;;;;;;5034591;28;20175;-66
2023/09/17 05:49:39;;;;;;;32.60;17.43;;;24.30;50.20;;;;;;5035171;28;20926;-69
2023/09/17 05:52:04;;;;;;;18.17;10.60;;;24.30;50.20;;;;;;5028018;28;20512;-68
2023/09/17 05:54:30;;;;;;;13.63;9.40;;;24.30;50.20;;;;;;5032343;28;20723;-66
2023/09/17 05:56:55;;;;;;;8.73;7.83;;;24.30;50.20;;;;;;5028729;28;20185;-65
2023/09/17 05:59:21;;;;;;;9.53;7.80;;;24.30;50.30;;;;;;5033266;28;20217;-66
2023/09/17 06:01:47;;;;;;;8.90;7.67;;;24.30;50.20;;;;;;5032422;28;20190;-64
2023/09/17 06:04:12;;;;;;;8.30;7.60;;;24.30;50.20;;;;;;5033460;28;20317;-66
2023/09/17 06:06:38;;;;;;;12.40;7.53;;;24.30;50.20;;;;;;5035363;28;20181;-67
2023/09/17 06:09:04;;;;;;;7.67;7.10;;;24.30;50.20;;;;;;5035850;28;20228;-65
2023/09/17 06:11:30;;;;;;;7.40;6.83;;;24.30;50.20;;;;;;5035923;28;20265;-65
2023/09/17 06:13:55;;;;;;;7.13;6.63;;;24.30;50.20;;;;;;5035645;28;20226;-67
2023/09/17 06:16:21;;;;;;;8.23;7.33;;;24.30;50.30;;;;;;5031474;28;22126;-68
2023/09/17 06:18:46;;;;;;;7.20;6.57;;;24.30;50.30;;;;;;5034141;28;20964;-67
2023/09/17 06:21:12;;;;;;;6.30;5.90;;;24.30;50.30;;;;;;5031948;28;20690;-65
2023/09/17 06:23:38;;;;;;;7.27;6.87;;;24.30;50.30;;;;;;5029516;28;20198;-64
2023/09/17 06:26:07;;;;;;;6.77;6.37;;;24.30;50.50;;;;;;5033898;28;20190;-64
2023/09/17 06:28:32;;;;;;;6.60;6.17;;;24.30;50.30;;;;;;5033377;28;20650;-68
2023/09/17 06:30:58;;;;;;;6.33;5.87;;;24.30;50.30;;;;;;5036749;28;20442;-64
2023/09/17 06:33:24;;;;;;;7.37;6.87;;;24.30;50.30;;;;;;5037372;28;20189;-64
2023/09/17 06:35:49;;;;;;;6.00;5.60;;;24.30;50.30;;;;;;5029593;28;20694;-65
2023/09/17 06:38:15;;;;;;;7.07;6.47;;;24.30;50.30;;;;;;5028516;28;20740;-65
2023/09/17 06:40:40;;;;;;;6.93;6.33;;;24.30;50.40;;;;;;5029587;28;20182;-65
2023/09/17 06:43:06;;;;;;;5.87;5.57;;;24.30;50.40;;;;;;5030818;28;20198;-67
2023/09/17 06:45:31;;;;;;;5.97;5.57;;;24.30;50.30;;;;;;5028743;28;20190;-65
2023/09/17 06:47:57;;;;;;;6.27;5.87;;;24.30;50.30;;;;;;5030331;28;20708;-67
2023/09/17 06:50:23;;;;;;;7.13;6.63;;;24.30;50.30;;;;;;5029461;28;20194;-64
2023/09/17 06:52:48;;;;;;;6.03;5.63;;;24.30;50.30;;;;;;5026419;28;20190;-65
2023/09/17 06:55:14;;;;;;;6.67;6.00;;;24.40;50.50;;;;;;5035342;28;20217;-65
2023/09/17 06:57:39;;;;;;;6.77;6.37;;;24.30;50.30;;;;;;5036615;28;20186;-68
2023/09/17 07:00:06;;;;;;;6.20;5.90;;;24.30;50.30;;;;;;5034418;28;20312;-70
2023/09/17 07:02:32;;;;;;;6.60;6.17;;;24.30;50.50;;;;;;5033564;28;20639;-63
2023/09/17 07:05:00;;;;;;;6.30;5.93;;;24.30;50.50;;;;;;5034878;28;20471;-67
2023/09/17 07:07:26;;;;;;;6.07;5.67;;;24.30;50.40;;;;;;5035645;28;20430;-63
2023/09/17 07:09:52;;;;;;;5.50;5.20;;;24.30;50.50;;;;;;5035355;28;20518;-70
2023/09/17 07:12:17;;;;;;;6.00;5.70;;;24.30;50.40;;;;;;5034254;28;20435;-64
2023/09/17 07:14:43;;;;;;;5.67;5.37;;;24.30;50.40;;;;;;5033822;28;21797;-65
2023/09/17 07:17:09;;;;;;;6.30;5.80;;;24.30;50.30;;;;;;5032076;28;20693;-66
2023/09/17 07:19:35;;;;;;;5.20;5.00;;;24.30;50.30;;;;;;5035772;28;20218;-60
2023/09/17 07:22:01;;;;;;;6.50;6.07;;;24.30;50.30;;;;;;5033061;28;20438;-64
2023/09/17 07:24:26;;;;;;;5.57;5.23;;;24.30;50.40;;;;;;5032448;28;20435;-65
2023/09/17 07:26:52;;;;;;;5.73;5.43;;;24.30;50.40;;;;;;5037817;28;20182;-66
2023/09/17 07:29:17;;;;;;;5.90;5.60;;;24.30;50.30;;;;;;5037428;28;20198;-63
2023/09/17 07:31:46;;;;;;;5.70;5.30;;;24.30;51.10;;;;;;5040882;28;20174;-64
2023/09/17 07:34:12;;;;;;;6.20;4.77;;;24.40;50.50;;;;;;5034562;28;20647;-64
2023/09/17 07:36:37;;;;;;;5.90;5.60;;;24.30;50.40;;;;;;5035691;28;20433;-65
2023/09/17 07:39:03;;;;;;;5.70;5.30;;;24.30;50.40;;;;;;5037732;28;20257;-65
2023/09/17 07:41:29;;;;;;;5.40;5.10;;;24.40;50.50;;;;;;5034270;28;20200;-64
2023/09/17 07:43:55;;;;;;;6.23;5.93;;;24.30;50.40;;;;;;5037055;28;20190;-63
2023/09/17 07:46:20;;;;;;;5.53;5.20;;;24.40;50.50;;;;;;5035102;28;20318;-61
2023/09/17 07:48:47;;;;;;;6.20;5.80;;;24.40;50.50;;;;;;5037574;28;20187;-66
2023/09/17 07:51:13;;;;;;;5.80;5.40;;;24.40;50.50;;;;;;5024193;28;20265;-64
2023/09/17 07:53:38;;;;;;;5.50;5.20;;;24.40;50.50;;;;;;5035371;28;20960;-63
2023/09/17 07:56:04;;;;;;;5.17;4.90;;;24.40;50.50;;;;;;5032978;28;20625;-65
2023/09/17 07:58:30;;;;;;;6.27;5.67;;;24.40;50.50;;;;;;5032607;28;20182;-68
2023/09/17 08:00:56;;;;;;;6.03;5.53;;;24.40;50.60;;;;;;5033045;28;20200;-67
2023/09/17 08:03:21;;;;;;;6.10;5.63;;;24.40;50.50;;;;;;5031717;28;20909;-68
2023/09/17 08:05:47;;;;;;;5.53;5.13;;;24.40;50.60;;;;;;5031985;28;20257;-65
2023/09/17 08:08:14;;;;;;;5.90;5.50;;;24.40;50.60;;;;;;5030096;28;20189;-68
2023/09/17 08:10:40;;;;;;;5.47;5.17;;;24.40;50.60;;;;;;5031179;28;20559;-64
2023/09/17 08:13:06;;;;;;;5.40;5.10;;;24.40;50.60;;;;;;5033855;28;20509;-65
2023/09/17 08:15:32;;;;;;;5.60;5.30;;;24.40;50.60;;;;;;5033166;28;20785;-63
2023/09/17 08:17:57;;;;;;;5.67;5.37;;;24.40;50.60;;;;;;5035958;28;20635;-66
2023/09/17 08:20:23;;;;;;;5.43;5.13;;;24.40;50.60;;;;;;5031166;28;21025;-66
2023/09/17 08:22:52;;;;;;;4.80;4.50;;;24.40;50.60;;;;;;5036817;28;20254;-62
2023/09/17 08:25:18;;;;;;;5.57;5.13;;;24.40;50.60;;;;;;5031204;28;20191;-65
2023/09/17 08:27:45;;;;;;;5.20;4.80;;;24.40;50.60;;;;;;5036082;28;20939;-62
2023/09/17 08:30:12;;;;;;;5.23;4.93;;;24.40;50.50;;;;;;5031614;28;20447;-65
2023/09/17 08:32:39;;;;;;;5.90;5.60;;;24.40;50.60;;;;;;5036798;28;20505;-65
2023/09/17 08:35:06;;;;;;;5.07;4.63;;;24.40;50.60;;;;;;5032540;28;21252;-68
2023/09/17 08:37:32;;;;;;;5.80;5.50;;;24.40;50.60;;;;;;5038818;28;20439;-63
2023/09/17 08:39:57;;;;;;;5.47;5.17;;;24.40;50.80;;;;;;5027455;28;20974;-64
2023/09/17 08:42:26;;;;;;;4.90;4.60;;;24.40;50.60;;;;;;5032610;28;20297;-62
2023/09/17 08:44:56;;;;;;;4.87;4.60;;;24.40;50.60;;;;;;5034929;28;20268;-65
2023/09/17 08:47:22;;;;;;;4.87;4.57;;;24.40;50.60;;;;;;5025325;28;20764;-62
2023/09/17 08:49:48;;;;;;;4.90;4.60;;;24.40;50.60;;;;;;5023593;28;20458;-66
2023/09/17 08:52:17;;;;;;;4.50;4.30;;;24.40;50.70;;;;;;5030298;28;20233;-65
2023/09/17 08:54:44;;;;;;;5.00;4.70;;;24.40;50.60;;;;;;5032941;28;20177;-67
2023/09/17 08:57:12;;;;;;;4.50;4.30;;;24.40;50.60;;;;;;5030506;28;20443;-62
2023/09/17 08:59:43;;;;;;;5.50;5.20;;;24.40;50.60;;;;;;5035582;28;20474;-63
2023/09/17 09:02:24;;;;;;;4.93;4.63;;;24.40;50.60;;;;;;5028049;28;20538;-66
2023/09/17 09:04:51;;;;;;;4.47;4.27;;;24.40;50.50;;;;;;5034723;28;20508;-64
2023/09/17 09:07:22;;;;;;;5.47;5.17;;;24.40;50.50;;;;;;5035061;28;20431;-63
2023/09/17 09:09:52;;;;;;;4.60;4.40;;;24.40;50.50;;;;;;5021800;28;21723;-71
2023/09/17 09:12:18;;;;;;;4.80;4.50;;;24.50;50.60;;;;;;5030805;28;20430;-62
2023/09/17 09:14:44;;;;;;;4.70;4.33;;;24.50;50.60;;;;;;5033679;28;20630;-66
2023/09/17 09:17:11;;;;;;;4.80;4.20;;;24.50;50.60;;;;;;5033164;28;20438;-62
2023/09/17 09:19:37;;;;;;;4.50;4.20;;;24.40;50.50;;;;;;5035763;28;20478;-68
2023/09/17 09:22:03;;;;;;;4.43;4.23;;;24.40;50.60;;;;;;5036935;28;20427;-63
2023/09/17 09:24:39;;;;;;;5.30;4.90;;;24.50;50.60;;;;;;5037036;28;20609;-63
2023/09/17 09:27:05;;;;;;;4.33;4.13;;;24.50;50.50;;;;;;5035538;28;20184;-62
2023/09/17 09:29:31;;;;;;;4.50;4.30;;;24.50;50.60;;;;;;5035783;28;21326;-66
2023/09/17 09:31:57;;;;;;;5.43;4.00;;;24.50;50.50;;;;;;5037450;28;20528;-66
2023/09/17 09:34:25;;;;;;;4.40;4.20;;;24.50;50.60;;;;;;5036369;28;20206;-64
2023/09/17 09:36:51;;;;;;;4.40;4.17;;;24.50;50.50;;;;;;5037658;28;20439;-65
2023/09/17 09:39:16;;;;;;;4.50;4.23;;;24.50;50.60;;;;;;5035645;28;20511;-65
2023/09/17 09:41:42;;;;;;;4.17;3.97;;;24.50;50.50;;;;;;5034379;28;20442;-65
2023/09/17 09:44:08;;;;;;;4.47;4.27;;;24.50;50.60;;;;;;5031187;28;20195;-68
2023/09/17 09:46:33;;;;;;;4.33;4.13;;;24.50;50.50;;;;;;5031364;28;20178;-77
2023/09/17 09:49:01;;;;;;;4.40;4.10;;;24.50;50.60;;;;;;5025811;28;20670;-67
2023/09/17 09:51:29;;;;;;;4.10;3.90;;;24.50;50.60;;;;;;5027922;28;20183;-65
2023/09/17 09:53:55;;;;;;;3.83;3.63;;;24.50;50.60;;;;;;5029888;28;21180;-65
2023/09/17 09:56:27;;;;;;;4.67;4.37;;;24.50;50.60;;;;;;5035541;28;20454;-62
2023/09/17 09:58:54;;;;;;;4.10;3.90;;;24.50;50.70;;;;;;5029340;28;20837;-63
2023/09/17 10:01:20;;;;;;;3.50;3.30;;;24.50;50.60;;;;;;5029211;28;20961;-64
2023/09/17 10:03:47;;;;;;;4.27;3.97;;;24.50;50.60;;;;;;5030285;28;20443;-64
2023/09/17 10:06:13;;;;;;;3.80;3.60;;;24.50;50.60;;;;;;5028424;28;20662;-62
2023/09/17 10:08:40;;;;;;;3.93;3.53;;;24.50;50.60;;;;;;5023530;28;20475;-62
2023/09/17 10:11:07;;;;;;;4.10;3.90;;;24.50;50.50;;;;;;5023723;28;20438;-63
2023/09/17 10:13:33;;;;;;;5.70;4.03;;;24.50;50.50;;;;;;5031043;28;20485;-63
2023/09/17 10:16:00;;;;;;;3.50;3.20;;;24.50;50.50;;;;;;5031390;28;20525;-64
2023/09/17 10:18:27;;;;;;;6.30;3.40;;;24.50;50.50;;;;;;5030500;28;20576;-65
2023/09/17 10:20:54;;;;;;;5.43;3.90;;;24.60;50.50;;;;;;5027684;28;20446;-65
2023/09/17 10:23:22;;;;;;;9.97;4.13;;;24.60;50.50;;;;;;5024299;28;20436;-62
2023/09/17 10:25:50;;;;;;;4.43;4.03;;;24.60;50.50;;;;;;5020232;28;20470;-63
2023/09/17 10:28:17;;;;;;;5.57;4.20;;;24.60;50.60;;;;;;5029991;28;20435;-66
2023/09/17 10:30:45;;;;;;;4.57;4.27;;;24.60;50.60;;;;;;5061387;28;20546;-61
2023/09/17 10:33:14;;;;;;;3.60;3.40;;;24.60;50.60;;;;;;5022432;28;20775;-65
2023/09/17 10:35:42;;;;;;;7.03;3.70;;;24.70;50.70;;;;;;5032074;28;21439;-60
2023/09/17 10:38:09;;;;;;;3.97;3.50;;;24.70;50.80;;;;;;5025091;28;20517;-64
2023/09/17 10:40:36;;;;;;;12.17;3.90;;;24.70;50.90;;;;;;5028453;28;21340;-63
2023/09/17 10:43:04;;;;;;;6.63;3.47;;;24.70;50.90;;;;;;5031724;28;20443;-64
2023/09/17 10:45:33;;;;;;;3.30;3.10;;;24.70;50.90;;;;;;5032565;28;20462;-63
2023/09/17 10:48:00;;;;;;;2.80;2.57;;;24.70;51.00;;;;;;5031615;28;20514;-64
2023/09/17 10:50:27;;;;;;;2.90;2.70;;;24.60;50.90;;;;;;5032260;28;20445;-62
2023/09/17 10:52:53;;;;;;;4.93;2.73;;;24.70;51.10;;;;;;5030915;28;20440;-64
2023/09/17 10:55:21;;;;;;;2.67;2.47;;;24.60;51.00;;;;;;5029390;28;20431;-64
2023/09/17 10:58:00;;;;;;;2.47;2.27;;;24.60;51.00;;;;;;5027947;28;20543;-64
2023/09/17 11:00:28;;;;;;;2.60;2.40;;;24.70;51.20;;;;;;5032563;28;20557;-63
2023/09/17 11:02:57;;;;;;;2.50;2.40;;;24.60;51.10;;;;;;5034577;28;20439;-63
2023/09/17 11:05:25;;;;;;;2.50;2.30;;;24.60;51.90;;;;;;5031911;28;20579;-61
2023/09/17 11:07:55;;;;;;;3.30;2.10;;;24.60;51.20;;;;;;5030822;28;20423;-62
2023/09/17 11:10:21;;;;;;;2.17;2.07;;;24.60;51.20;;;;;;5032610;28;20442;-64
2023/09/17 11:12:47;;;;;;;2.40;2.20;;;24.60;51.30;;;;;;5033559;28;21228;-61
2023/09/17 11:15:13;;;;;;;2.10;2.00;;;24.60;51.30;;;;;;5029899;28;20186;-63
2023/09/17 11:17:40;;;;;;;1.90;1.80;;;24.60;51.30;;;;;;5028840;28;20440;-63
2023/09/17 11:20:16;;;;;;;1.73;1.63;;;24.60;51.30;;;;;;5027529;28;20207;-65
2023/09/17 11:22:43;;;;;;;2.23;2.03;;;24.60;51.30;;;;;;5033963;28;20440;-64
2023/09/17 11:25:12;;;;;;;2.17;2.07;;;24.60;51.30;;;;;;5038824;28;20443;-62
2023/09/17 11:28:08;;;;;;;1.67;1.57;;;24.60;51.30;;;;;;5033453;28;20546;-65
2023/09/17 11:30:57;;;;;;;1.80;1.70;;;24.60;51.20;;;;;;5024776;28;20440;-62
2023/09/17 11:33:24;;;;;;;1.80;1.70;;;24.60;51.30;;;;;;5029715;28;20442;-63
2023/09/17 11:35:49;;;;;;;1.77;1.67;;;24.60;51.30;;;;;;5028255;28;20571;-65
2023/09/17 11:38:15;;;;;;;1.53;1.43;;;24.60;51.30;;;;;;5030730;28;20435;-61
2023/09/17 11:40:44;;;;;;;2.00;1.90;;;24.60;51.30;;;;;;5024946;28;20422;-61
2023/09/17 11:43:12;;;;;;;1.50;1.40;;;24.60;51.30;;;;;;5030777;28;20190;-66
2023/09/17 11:45:39;;;;;;;1.60;1.50;;;24.60;51.20;;;;;;5028264;28;20443;-64
2023/09/17 11:48:07;;;;;;;1.60;1.50;;;24.70;51.30;;;;;;5030284;28;21252;-62
2023/09/17 11:50:32;;;;;;;1.50;1.40;;;24.70;51.30;;;;;;5028457;28;20973;-65
2023/09/17 11:53:05;;;;;;;1.57;1.47;;;24.70;51.30;;;;;;5036474;28;20441;-62
2023/09/17 11:55:32;;;;;;;1.50;1.40;;;24.70;51.30;;;;;;5029653;28;20213;-63
2023/09/17 11:58:18;;;;;;;1.30;1.20;;;24.70;51.30;;;;;;5028413;28;20432;-62
2023/09/17 12:00:45;;;;;;;1.60;1.50;;;24.70;51.20;;;;;;5036180;28;20977;-63
2023/09/17 12:03:13;;;;;;;1.80;1.70;;;24.70;51.30;;;;;;5033014;28;20442;-65
2023/09/17 12:05:39;;;;;;;1.37;1.27;;;24.70;51.20;;;;;;5029231;28;20524;-62
2023/09/17 12:08:06;;;;;;;1.40;1.30;;;24.70;51.20;;;;;;5033231;28;20447;-66
2023/09/17 12:10:36;;;;;;;1.53;1.43;;;24.70;51.20;;;;;;5031780;28;20435;-65
2023/09/17 12:13:05;;;;;;;1.53;1.43;;;24.70;51.20;;;;;;5033595;28;20447;-63
2023/09/17 12:15:31;;;;;;;1.40;1.30;;;24.70;51.30;;;;;;5029137;28;20431;-65
2023/09/17 12:17:57;;;;;;;1.50;1.40;;;24.70;51.20;;;;;;5031852;28;20435;-64
2023/09/17 12:20:56;;;;;;;1.63;1.53;;;24.70;51.20;;;;;;5034718;28;20467;-62
2023/09/17 12:24:08;;;;;;;1.30;1.20;;;24.70;51.20;;;;;;5026277;28;20631;-68
2023/09/17 12:29:39;;;;;;;1.40;1.30;;;24.70;51.30;;;;;;5029610;28;20539;-63
2023/09/17 12:32:06;;;;;;;1.10;1.10;;;24.60;51.20;;;;;;5027370;28;20431;-62
2023/09/17 12:34:36;;;;;;;1.40;1.30;;;24.70;51.30;;;;;;5030465;28;20189;-65
2023/09/17 12:37:02;;;;;;;1.30;1.20;;;24.60;51.20;;;;;;5027859;28;20450;-63
2023/09/17 12:39:28;;;;;;;1.40;1.30;;;24.70;51.30;;;;;;5028819;28;20474;-64
2023/09/17 12:41:54;;;;;;;1.30;1.20;;;24.70;51.30;;;;;;5028550;28;20435;-65
2023/09/17 12:44:19;;;;;;;1.50;1.40;;;24.70;51.30;;;;;;5030535;28;20271;-66
2023/09/17 12:46:45;;;;;;;1.60;1.50;;;24.70;51.30;;;;;;5029474;28;20274;-63
2023/09/17 12:49:11;;;;;;;1.60;1.50;;;24.70;51.20;;;;;;5029368;28;20590;-62